Time;durP1;ratioP1;P1;durP2;ratioP2;P2;SDS_P1;SDS_P2;PMS_P1;PMS_P2;Temp;Humidity;BMP_temperature;BMP_pressure;BME280_temperature;BME280_humidity;BME280_pressure;Samples;Min_cycle;Max_cycle;Signal;HPM_P1;HPM_P2
2022/08/09 00:02:21;;;;;;;10.00;5.15;;;16.00;99.90;;;;;;5013658;28;20084;-80
2022/08/09 00:04:47;;;;;;;8.80;3.35;;;15.90;99.90;;;;;;4995163;28;20075;-80
2022/08/09 00:07:12;;;;;;;8.88;3.67;;;15.90;99.90;;;;;;5012392;28;20100;-80
2022/08/09 00:09:39;;;;;;;7.70;3.88;;;15.90;99.90;;;;;;4997847;28;20041;-80
2022/08/09 00:12:05;;;;;;;4.53;3.47;;;15.90;99.90;;;;;;5014165;28;20089;-81
2022/08/09 00:14:32;;;;;;;4.38;3.38;;;15.80;99.90;;;;;;5013136;28;20573;-80
2022/08/09 00:16:57;;;;;;;5.57;3.72;;;15.80;99.90;;;;;;5010185;28;20037;-81
2022/08/09 00:19:23;;;;;;;6.60;3.90;;;15.80;99.90;;;;;;4996348;28;20030;-80
2022/08/09 00:22:03;;;;;;;4.15;3.40;;;15.70;99.90;;;;;;5013968;28;20018;-80
2022/08/09 00:24:30;;;;;;;16.63;3.63;;;15.70;99.90;;;;;;5002791;28;20038;-81
2022/08/09 00:26:56;;;;;;;8.15;3.72;;;15.70;99.90;;;;;;5014210;28;20022;-81
2022/08/09 00:29:22;;;;;;;7.00;4.00;;;15.70;99.90;;;;;;4997818;28;20030;-80
2022/08/09 00:31:48;;;;;;;4.85;4.00;;;15.60;99.90;;;;;;4994266;28;20030;-81
2022/08/09 00:34:15;;;;;;;6.40;3.83;;;15.60;99.90;;;;;;5009677;28;20038;-80
2022/08/09 00:36:41;;;;;;;5.35;4.05;;;15.60;99.90;;;;;;5002240;28;20456;-81
2022/08/09 00:39:07;;;;;;;11.23;3.80;;;15.60;99.90;;;;;;5013473;28;20113;-81
2022/08/09 00:41:33;;;;;;;6.80;4.05;;;15.60;99.90;;;;;;4996656;28;20062;-80
2022/08/09 00:43:59;;;;;;;4.43;3.85;;;15.50;99.90;;;;;;5000877;28;20478;-80
2022/08/09 00:46:24;;;;;;;6.28;3.72;;;15.50;99.90;;;;;;5008660;28;20101;-80
2022/08/09 00:48:51;;;;;;;4.65;3.88;;;15.40;99.90;;;;;;5001066;28;20022;-80
2022/08/09 00:51:17;;;;;;;5.60;4.05;;;15.50;99.90;;;;;;5003332;28;20059;-80
2022/08/09 00:53:45;;;;;;;4.35;3.78;;;15.40;99.90;;;;;;4994109;28;20026;-80
2022/08/09 00:56:10;;;;;;;6.93;3.90;;;15.40;99.90;;;;;;5004399;28;20092;-80
2022/08/09 00:58:37;;;;;;;5.20;3.70;;;15.40;99.90;;;;;;5011118;28;20122;-80
2022/08/09 01:01:19;;;;;;;5.47;4.03;;;15.40;99.90;;;;;;5013320;28;20018;-80
2022/08/09 01:04:01;;;;;;;5.97;4.32;;;15.40;99.90;;;;;;5003445;28;20037;-81
2022/08/09 01:06:51;;;;;;;7.93;4.32;;;15.30;99.90;;;;;;4993669;28;20034;-80
2022/08/09 01:09:34;;;;;;;7.55;4.75;;;15.30;99.90;;;;;;5007612;28;20117;-80
2022/08/09 01:12:35;;;;;;;4.30;3.55;;;15.30;99.90;;;;;;4993603;28;20027;-80
2022/08/09 01:15:11;;;;;;;5.50;3.88;;;15.30;99.90;;;;;;5006459;28;20469;-81
2022/08/09 01:18:06;;;;;;;5.18;3.55;;;15.20;99.90;;;;;;5011623;28;20057;-81
2022/08/09 01:21:12;;;;;;;6.47;3.75;;;15.20;99.90;;;;;;5013661;28;20078;-80
2022/08/09 01:24:22;;;;;;;10.90;4.23;;;15.20;99.90;;;;;;4998084;28;20034;-81
2022/08/09 01:27:07;;;;;;;10.18;4.30;;;15.10;99.90;;;;;;4993729;28;20434;-80
2022/08/09 01:29:55;;;;;;;4.93;4.43;;;15.10;99.90;;;;;;5007963;28;20022;-80
2022/08/09 01:32:22;;;;;;;5.70;4.10;;;15.00;99.90;;;;;;5010656;28;20120;-80
2022/08/09 01:34:52;;;;;;;5.53;3.75;;;15.00;99.90;;;;;;5012285;28;20041;-80
2022/08/09 01:37:22;;;;;;;6.53;4.05;;;15.00;99.90;;;;;;4995397;28;20072;-80
2022/08/09 01:39:49;;;;;;;8.77;4.47;;;14.90;99.90;;;;;;5011728;28;20025;-80
2022/08/09 01:42:15;;;;;;;5.70;4.30;;;15.00;99.90;;;;;;5004210;28;20478;-80
2022/08/09 01:44:42;;;;;;;5.07;4.07;;;15.00;99.90;;;;;;5012868;28;20164;-80
2022/08/09 01:47:10;;;;;;;5.55;3.92;;;14.90;99.90;;;;;;5012006;28;20033;-80
2022/08/09 01:49:37;;;;;;;4.55;3.50;;;14.90;99.90;;;;;;5010265;28;20034;-80
2022/08/09 01:52:09;;;;;;;7.38;4.50;;;14.90;99.90;;;;;;5010742;28;20409;-80
2022/08/09 01:54:39;;;;;;;5.32;4.50;;;14.90;99.90;;;;;;5004304;28;20018;-80
2022/08/09 01:57:25;;;;;;;6.75;4.20;;;14.90;99.90;;;;;;5003798;28;20022;-80
2022/08/09 01:59:54;;;;;;;6.05;4.45;;;14.80;99.90;;;;;;5004210;28;20026;-80
2022/08/09 02:02:26;;;;;;;6.07;4.40;;;14.80;99.90;;;;;;5011119;28;20026;-81
2022/08/09 02:04:54;;;;;;;12.57;4.65;;;14.80;99.90;;;;;;5010819;28;20160;-80
2022/08/09 02:07:25;;;;;;;6.95;4.28;;;14.80;99.90;;;;;;5012494;28;20045;-81
2022/08/09 02:10:04;;;;;;;5.63;4.35;;;14.70;99.90;;;;;;5010363;28;20037;-80
2022/08/09 02:12:33;;;;;;;6.75;4.45;;;14.70;99.90;;;;;;4992946;28;20046;-80
2022/08/09 02:15:07;;;;;;;7.97;3.97;;;14.70;99.90;;;;;;4994754;28;20034;-80
2022/08/09 02:17:35;;;;;;;5.43;4.10;;;14.70;99.90;;;;;;5013169;28;20029;-80
2022/08/09 02:20:08;;;;;;;4.25;3.60;;;14.70;99.90;;;;;;5016572;28;20117;-80
2022/08/09 02:22:42;;;;;;;6.82;4.75;;;14.70;99.90;;;;;;5015316;28;20101;-80
2022/08/09 02:25:16;;;;;;;5.10;3.85;;;14.70;99.90;;;;;;4998116;28;20023;-80
2022/08/09 02:27:48;;;;;;;8.20;4.20;;;14.60;99.90;;;;;;5014319;28;20026;-80
2022/08/09 02:30:16;;;;;;;7.50;4.15;;;14.60;99.90;;;;;;4996842;28;20030;-80
2022/08/09 02:32:44;;;;;;;5.93;4.80;;;14.60;99.90;;;;;;4998759;28;20447;-80
2022/08/09 02:35:23;;;;;;;6.10;3.92;;;14.60;99.90;;;;;;4999372;28;20038;-80
2022/08/09 02:37:53;;;;;;;8.88;3.95;;;14.60;99.90;;;;;;4997766;28;20378;-81
2022/08/09 02:40:34;;;;;;;7.00;4.70;;;14.60;99.90;;;;;;5005902;28;20529;-80
2022/08/09 02:43:01;;;;;;;4.78;4.20;;;14.50;99.90;;;;;;5015591;28;20092;-80
2022/08/09 02:45:36;;;;;;;5.53;4.00;;;14.50;99.90;;;;;;5006106;28;20471;-80
2022/08/09 02:48:07;;;;;;;5.65;4.38;;;14.50;99.90;;;;;;5013653;28;20038;-81
2022/08/09 02:50:41;;;;;;;8.15;4.25;;;14.50;99.90;;;;;;4999774;28;20364;-80
2022/08/09 02:53:15;;;;;;;6.65;4.20;;;14.50;99.90;;;;;;4999148;28;20030;-82
2022/08/09 02:55:46;;;;;;;6.32;4.05;;;14.40;99.90;;;;;;5012129;28;20029;-80
2022/08/09 02:58:15;;;;;;;7.07;4.40;;;14.40;99.90;;;;;;5006558;28;20494;-80
2022/08/09 03:00:42;;;;;;;7.35;4.38;;;14.40;99.90;;;;;;5009982;28;20393;-80
2022/08/09 03:03:09;;;;;;;5.13;4.20;;;14.40;99.90;;;;;;5015166;28;20113;-80
2022/08/09 03:05:38;;;;;;;5.20;4.05;;;14.30;99.90;;;;;;5014326;28;20045;-80
2022/08/09 03:08:04;;;;;;;5.68;4.68;;;14.30;99.90;;;;;;4999346;28;20034;-80
2022/08/09 03:10:44;;;;;;;5.85;4.50;;;14.30;99.90;;;;;;5001751;28;20028;-80
2022/08/09 03:13:13;;;;;;;6.53;4.38;;;14.30;99.90;;;;;;5005977;28;20050;-80
2022/08/09 03:15:40;;;;;;;10.18;4.13;;;14.30;99.90;;;;;;5005411;28;20356;-80
2022/08/09 03:18:06;;;;;;;5.20;3.75;;;14.30;99.90;;;;;;5008022;28;20034;-80
2022/08/09 03:20:32;;;;;;;5.85;4.15;;;14.30;99.90;;;;;;5015002;28;20029;-80
2022/08/09 03:22:59;;;;;;;8.57;4.18;;;14.20;99.90;;;;;;5014544;28;20018;-80
2022/08/09 03:25:29;;;;;;;6.28;4.45;;;14.20;99.90;;;;;;5013388;28;20086;-80
2022/08/09 03:27:56;;;;;;;5.32;4.20;;;14.20;99.90;;;;;;5014442;28;20025;-80
2022/08/09 03:30:23;;;;;;;6.85;4.15;;;14.20;99.90;;;;;;5013358;28;20525;-80
2022/08/09 03:32:52;;;;;;;11.80;4.70;;;14.10;99.90;;;;;;5014062;28;20029;-80
2022/08/09 03:35:21;;;;;;;10.85;5.03;;;14.10;99.90;;;;;;5012251;28;20372;-80
2022/08/09 03:37:53;;;;;;;7.20;4.18;;;14.10;99.90;;;;;;5014641;28;20033;-80
2022/08/09 03:40:19;;;;;;;7.45;4.30;;;14.10;99.90;;;;;;5007214;28;20022;-79
2022/08/09 03:42:45;;;;;;;6.28;4.47;;;14.00;99.90;;;;;;5013149;28;20037;-79
2022/08/09 03:45:11;;;;;;;8.95;4.60;;;14.10;99.90;;;;;;5006101;28;20048;-79
2022/08/09 03:47:40;;;;;;;10.70;4.78;;;14.10;99.90;;;;;;5007924;28;20022;-79
2022/08/09 03:50:08;;;;;;;6.22;4.78;;;14.00;99.90;;;;;;5011122;28;20037;-79
2022/08/09 03:52:42;;;;;;;5.47;3.78;;;14.00;99.90;;;;;;5001850;28;20073;-79
2022/08/09 03:55:12;;;;;;;11.50;5.25;;;14.00;99.90;;;;;;4996759;28;20558;-79
2022/08/09 03:57:41;;;;;;;5.30;4.20;;;14.00;99.90;;;;;;5008950;28;20088;-80
2022/08/09 04:00:08;;;;;;;6.15;4.22;;;14.00;99.90;;;;;;5012581;28;20061;-79
2022/08/09 04:02:38;;;;;;;5.85;4.38;;;14.00;99.90;;;;;;5004901;28;20028;-80
2022/08/09 04:05:04;;;;;;;7.57;4.25;;;14.00;99.90;;;;;;5004610;28;20049;-80
2022/08/09 04:07:30;;;;;;;7.93;3.97;;;13.90;99.90;;;;;;5012598;28;20113;-80
2022/08/09 04:09:59;;;;;;;10.23;4.90;;;14.00;99.90;;;;;;5006487;28;20101;-81
2022/08/09 04:12:45;;;;;;;10.25;4.75;;;14.00;99.90;;;;;;5007480;28;20030;-80
2022/08/09 04:15:14;;;;;;;;;;;14.00;99.90;;;;;;5004529;28;20046;-80
2022/08/09 04:17:41;;;;;;;12.35;4.20;;;14.00;99.90;;;;;;5003458;28;19906;-80
2022/08/09 04:20:09;;;;;;;5.13;4.07;;;14.00;99.90;;;;;;5013650;28;20022;-81
2022/08/09 04:22:36;;;;;;;6.72;4.82;;;14.00;99.90;;;;;;5011845;28;20092;-81
2022/08/09 04:25:02;;;;;;;5.95;4.35;;;14.00;99.90;;;;;;5010481;28;20029;-81
2022/08/09 04:27:28;;;;;;;10.25;4.65;;;14.00;99.90;;;;;;5006707;28;20023;-81
2022/08/09 04:29:54;;;;;;;7.78;4.68;;;14.00;99.90;;;;;;5004966;28;20506;-81
2022/08/09 04:32:25;;;;;;;6.53;4.10;;;14.00;99.90;;;;;;5007282;28;20030;-81
2022/08/09 04:34:57;;;;;;;6.45;5.03;;;14.00;99.90;;;;;;5008343;28;20547;-81
2022/08/09 04:37:25;;;;;;;10.95;5.13;;;14.00;99.90;;;;;;5003447;28;20019;-81
2022/08/09 04:39:56;;;;;;;9.52;4.57;;;14.00;99.90;;;;;;5004695;28;20088;-81
2022/08/09 04:42:22;;;;;;;6.30;4.80;;;14.00;99.90;;;;;;5010927;28;20040;-81
2022/08/09 04:44:55;;;;;;;9.07;4.45;;;14.00;99.90;;;;;;5010425;28;20108;-81
2022/08/09 04:47:21;;;;;;;8.98;5.32;;;14.10;99.90;;;;;;5003846;28;20117;-80
2022/08/09 04:49:46;;;;;;;6.70;4.38;;;14.20;99.90;;;;;;5008208;28;20498;-80
2022/08/09 04:52:12;;;;;;;8.13;4.57;;;14.20;99.90;;;;;;5006252;28;20069;-80
2022/08/09 04:54:38;;;;;;;8.13;4.82;;;14.30;99.90;;;;;;5006180;28;20072;-80
2022/08/09 04:57:04;;;;;;;6.95;5.50;;;14.30;99.90;;;;;;5009572;28;20105;-80
2022/08/09 04:59:30;;;;;;;5.22;4.43;;;14.30;99.90;;;;;;5011420;28;20037;-80
2022/08/09 05:01:56;;;;;;;7.47;5.25;;;14.30;99.90;;;;;;5012363;28;20049;-80
2022/08/09 05:04:21;;;;;;;5.07;4.15;;;14.30;99.90;;;;;;5011841;28;20062;-80
2022/08/09 05:06:47;;;;;;;8.73;4.40;;;14.40;99.90;;;;;;5011482;28;20029;-80
2022/08/09 05:09:15;;;;;;;12.18;4.82;;;14.40;99.90;;;;;;5012585;28;20034;-80
2022/08/09 05:11:41;;;;;;;8.82;4.63;;;14.40;99.90;;;;;;5013044;28;20018;-80
2022/08/09 05:14:07;;;;;;;11.57;5.25;;;14.40;99.90;;;;;;5010816;28;20088;-80
2022/08/09 05:16:34;;;;;;;12.68;4.57;;;14.50;99.90;;;;;;5012065;28;20029;-80
2022/08/09 05:18:59;;;;;;;7.05;4.53;;;14.50;99.90;;;;;;5012154;28;20148;-80
2022/08/09 05:21:26;;;;;;;11.20;5.43;;;14.50;99.90;;;;;;5007692;28;20026;-79
2022/08/09 05:23:52;;;;;;;9.02;5.80;;;14.60;99.90;;;;;;5012876;28;20053;-80
2022/08/09 05:26:17;;;;;;;7.45;4.82;;;14.50;99.90;;;;;;5012001;28;20022;-80
2022/08/09 05:28:43;;;;;;;10.98;5.10;;;14.60;99.90;;;;;;5008606;28;20025;-79
2022/08/09 05:31:08;;;;;;;9.02;4.72;;;14.70;99.90;;;;;;5010904;28;20057;-80
2022/08/09 05:33:34;;;;;;;7.55;4.95;;;14.70;99.90;;;;;;5009954;28;20042;-80
2022/08/09 05:36:00;;;;;;;6.60;4.40;;;14.80;99.90;;;;;;5010776;28;20018;-80
2022/08/09 05:38:26;;;;;;;6.60;4.68;;;14.90;99.90;;;;;;5005909;28;20025;-80
2022/08/09 05:40:52;;;;;;;11.65;5.63;;;14.90;99.90;;;;;;5007816;28;20117;-79
2022/08/09 05:43:19;;;;;;;9.77;4.95;;;15.10;99.90;;;;;;5010813;28;20068;-79
2022/08/09 05:45:44;;;;;;;8.77;5.13;;;15.20;99.90;;;;;;5009799;28;20084;-80
2022/08/09 05:48:10;;;;;;;8.05;4.70;;;15.30;99.90;;;;;;5010917;28;20049;-79
2022/08/09 05:50:37;;;;;;;8.05;4.50;;;15.50;99.90;;;;;;5011115;28;20026;-80
2022/08/09 05:53:03;;;;;;;8.75;4.78;;;15.60;99.90;;;;;;5011260;28;20486;-79
2022/08/09 05:55:28;;;;;;;6.25;4.22;;;15.80;99.90;;;;;;5014374;28;20030;-79
2022/08/09 05:57:54;;;;;;;6.25;4.47;;;15.90;99.90;;;;;;5016140;28;20088;-79
2022/08/09 06:00:20;;;;;;;10.60;4.15;;;15.90;99.90;;;;;;5016082;28;20482;-80
2022/08/09 06:02:46;;;;;;;9.73;4.15;;;16.00;99.90;;;;;;5016339;28;20034;-80
2022/08/09 06:05:12;;;;;;;9.27;5.15;;;16.00;99.90;;;;;;5009417;28;20032;-80
2022/08/09 06:07:38;;;;;;;8.30;4.25;;;16.10;99.90;;;;;;5016139;28;20038;-81
2022/08/09 06:10:04;;;;;;;12.95;5.10;;;16.10;99.90;;;;;;5016660;28;20030;-80
2022/08/09 06:12:37;;;;;;;8.80;4.38;;;16.20;99.90;;;;;;5015426;28;20056;-80
2022/08/09 06:15:02;;;;;;;6.47;4.68;;;16.20;99.90;;;;;;5016133;28;20030;-80
2022/08/09 06:17:30;;;;;;;6.97;4.03;;;16.30;99.90;;;;;;5015154;28;20033;-80
2022/08/09 06:19:55;;;;;;;13.30;4.57;;;16.40;99.90;;;;;;5016136;28;20022;-80
2022/08/09 06:22:22;;;;;;;11.05;4.50;;;16.40;99.90;;;;;;5016544;28;20040;-80
2022/08/09 06:24:48;;;;;;;12.20;5.72;;;16.50;99.90;;;;;;5013521;28;20041;-80
2022/08/09 06:27:14;;;;;;;8.20;4.72;;;16.60;99.90;;;;;;5015495;28;20022;-80
2022/08/09 06:29:40;;;;;;;15.73;4.10;;;16.70;99.90;;;;;;5016131;28;20100;-80
2022/08/09 06:32:07;;;;;;;11.45;5.05;;;16.60;99.90;;;;;;5015647;28;20125;-81
2022/08/09 06:34:34;;;;;;;9.05;4.38;;;16.70;99.90;;;;;;5011169;28;20414;-80
2022/08/09 06:37:00;;;;;;;11.82;4.38;;;16.80;99.90;;;;;;5015124;28;20018;-81
2022/08/09 06:39:28;;;;;;;9.90;4.32;;;16.80;99.90;;;;;;5016064;28;20553;-80
2022/08/09 06:41:53;;;;;;;20.63;5.05;;;16.80;99.90;;;;;;5003142;28;20382;-80
2022/08/09 06:44:20;;;;;;;11.75;4.15;;;16.80;99.90;;;;;;5015839;28;20028;-80
2022/08/09 06:46:47;;;;;;;9.80;4.55;;;16.80;99.90;;;;;;5015114;28;20034;-80
2022/08/09 06:49:13;;;;;;;11.10;5.07;;;16.80;99.90;;;;;;5014499;28;20030;-80
2022/08/09 06:51:39;;;;;;;13.82;4.78;;;16.90;99.90;;;;;;5010284;28;20561;-80
2022/08/09 06:54:06;;;;;;;8.20;4.60;;;17.00;99.90;;;;;;5015641;28;20072;-80
2022/08/09 06:56:32;;;;;;;8.13;4.40;;;17.00;99.90;;;;;;5015941;28;20065;-80
2022/08/09 06:58:58;;;;;;;13.23;4.43;;;17.00;99.90;;;;;;5015779;28;20042;-81
2022/08/09 07:01:23;;;;;;;6.55;4.28;;;17.10;99.90;;;;;;5015329;28;20080;-80
2022/08/09 07:03:51;;;;;;;17.55;5.32;;;17.20;99.90;;;;;;5015495;28;20469;-81
2022/08/09 07:06:17;;;;;;;15.55;5.13;;;17.30;99.90;;;;;;5015549;28;20034;-80
2022/08/09 07:08:44;;;;;;;11.48;5.20;;;17.40;99.90;;;;;;5015258;28;20040;-80
2022/08/09 07:11:10;;;;;;;8.88;4.32;;;17.50;99.90;;;;;;5015378;28;20026;-80
2022/08/09 07:13:42;;;;;;;12.75;5.63;;;17.50;99.90;;;;;;5015504;28;20030;-80
2022/08/09 07:16:07;;;;;;;9.65;4.25;;;17.60;99.90;;;;;;5013571;28;20062;-80
2022/08/09 07:18:33;;;;;;;19.25;4.28;;;17.60;99.90;;;;;;5013742;28;20057;-80
2022/08/09 07:20:58;;;;;;;7.97;5.22;;;17.60;99.90;;;;;;5014161;28;20088;-81
2022/08/09 07:23:25;;;;;;;20.13;6.00;;;17.60;99.90;;;;;;5015443;28;20026;-81
2022/08/09 07:25:50;;;;;;;12.82;5.15;;;17.70;99.90;;;;;;5013739;28;20037;-80
2022/08/09 07:28:17;;;;;;;12.57;4.25;;;17.70;99.90;;;;;;5014477;28;20041;-80
2022/08/09 07:30:43;;;;;;;11.02;4.85;;;17.80;99.90;;;;;;5006887;28;20030;-80
2022/08/09 07:33:09;;;;;;;11.55;5.03;;;17.80;99.90;;;;;;5004064;28;20029;-81
2022/08/09 07:35:35;;;;;;;14.60;5.85;;;17.80;99.90;;;;;;5012893;28;20367;-80
2022/08/09 07:38:01;;;;;;;10.68;4.97;;;17.90;99.90;;;;;;5011851;28;20037;-80
2022/08/09 07:40:27;;;;;;;10.82;5.35;;;17.90;99.90;;;;;;5011866;28;20481;-80
2022/08/09 07:42:55;;;;;;;9.02;4.85;;;18.00;99.90;;;;;;5013924;28;20094;-80
2022/08/09 07:45:25;;;;;;;12.60;3.90;;;18.00;99.90;;;;;;5013903;28;20033;-80
2022/08/09 07:47:55;;;;;;;9.10;4.45;;;18.00;99.90;;;;;;5013839;28;20080;-80
2022/08/09 07:50:21;;;;;;;12.55;4.93;;;18.00;99.90;;;;;;5012663;28;20482;-80
2022/08/09 07:52:48;;;;;;;22.73;5.18;;;18.10;99.90;;;;;;5013820;28;20030;-80
2022/08/09 07:55:14;;;;;;;17.27;5.00;;;18.20;99.90;;;;;;5013800;28;20029;-80
2022/08/09 07:57:40;;;;;;;13.15;5.68;;;18.20;99.90;;;;;;5013938;28;20100;-80
2022/08/09 08:00:06;;;;;;;16.98;5.15;;;18.30;99.90;;;;;;5013470;28;20022;-80
2022/08/09 08:02:32;;;;;;;7.93;4.75;;;18.30;99.90;;;;;;5013422;28;20026;-80
2022/08/09 08:04:58;;;;;;;12.57;4.55;;;18.40;99.90;;;;;;5013376;28;20097;-80
2022/08/09 08:07:23;;;;;;;7.07;4.28;;;18.40;99.90;;;;;;5013567;28;20478;-80
2022/08/09 08:09:49;;;;;;;14.02;5.20;;;18.50;99.90;;;;;;5013438;28;20477;-80
2022/08/09 08:12:15;;;;;;;13.75;4.40;;;18.50;99.90;;;;;;5013528;28;20057;-80
2022/08/09 08:14:40;;;;;;;6.60;4.03;;;18.50;99.90;;;;;;5011732;28;20026;-80
2022/08/09 08:17:06;;;;;;;11.32;4.82;;;18.50;99.90;;;;;;5012664;28;20536;-80
2022/08/09 08:19:31;;;;;;;10.82;4.60;;;18.60;99.90;;;;;;5013459;28;20488;-80
2022/08/09 08:21:57;;;;;;;9.55;4.13;;;18.70;99.90;;;;;;5013211;28;20034;-80
2022/08/09 08:24:23;;;;;;;8.45;3.95;;;18.70;99.90;;;;;;5013082;28;20048;-80
2022/08/09 08:26:48;;;;;;;15.05;4.75;;;18.80;99.90;;;;;;5013213;28;20371;-80
2022/08/09 08:29:18;;;;;;;7.35;4.30;;;18.80;99.90;;;;;;5013129;28;20117;-80
2022/08/09 08:31:45;;;;;;;16.42;5.53;;;18.90;99.90;;;;;;5012695;28;20403;-81
2022/08/09 08:34:11;;;;;;;11.98;4.53;;;19.00;99.90;;;;;;5013036;28;20071;-80
2022/08/09 08:36:36;;;;;;;14.52;4.22;;;19.10;99.90;;;;;;5013038;28;20041;-80
2022/08/09 08:39:03;;;;;;;17.05;4.93;;;19.10;99.90;;;;;;5012884;28;20042;-80
2022/08/09 08:41:29;;;;;;;7.70;3.92;;;19.20;99.90;;;;;;5012925;28;20076;-80
2022/08/09 08:43:56;;;;;;;11.48;4.57;;;19.20;99.90;;;;;;5012830;28;20088;-80
2022/08/09 08:46:27;;;;;;;10.82;4.40;;;19.30;99.90;;;;;;5012491;28;20030;-80
2022/08/09 08:48:53;;;;;;;12.43;4.03;;;19.30;99.90;;;;;;5012787;28;20494;-80
2022/08/09 08:51:21;;;;;;;9.20;4.57;;;19.40;99.90;;;;;;5012838;28;20053;-80
2022/08/09 08:53:47;;;;;;;10.90;4.10;;;19.50;99.90;;;;;;5012691;28;20041;-80
2022/08/09 08:56:13;;;;;;;8.10;4.07;;;19.50;99.90;;;;;;5012833;28;20060;-80
2022/08/09 08:58:40;;;;;;;7.30;4.20;;;19.60;99.90;;;;;;5012741;28;20113;-80
2022/08/09 09:01:07;;;;;;;9.07;3.83;;;19.70;99.90;;;;;;5012190;28;20022;-80
2022/08/09 09:03:33;;;;;;;10.48;3.97;;;19.70;99.90;;;;;;5008911;28;20029;-80
2022/08/09 09:06:00;;;;;;;9.88;4.03;;;19.80;99.90;;;;;;5008952;28;20513;-80
2022/08/09 09:08:31;;;;;;;5.65;3.70;;;19.90;99.90;;;;;;5012371;28;20072;-80
2022/08/09 09:10:59;;;;;;;8.68;4.25;;;20.00;99.90;;;;;;5012021;28;20029;-81
2022/08/09 09:13:27;;;;;;;9.15;4.47;;;20.10;99.90;;;;;;5007716;28;20030;-80
2022/08/09 09:15:52;;;;;;;6.85;3.78;;;20.10;99.90;;;;;;5009217;28;20105;-80
2022/08/09 09:18:18;;;;;;;9.43;4.25;;;20.30;99.90;;;;;;5010233;28;20136;-80
2022/08/09 09:20:44;;;;;;;10.40;4.18;;;20.40;99.90;;;;;;5005163;28;20044;-81
2022/08/09 09:23:10;;;;;;;10.35;4.53;;;20.40;99.90;;;;;;4999118;28;20021;-81
2022/08/09 09:25:35;;;;;;;10.43;4.40;;;20.60;99.90;;;;;;5012824;28;20056;-81
2022/08/09 09:28:04;;;;;;;7.75;4.32;;;20.60;99.90;;;;;;5012158;28;20025;-81
2022/08/09 09:30:30;;;;;;;11.57;4.47;;;20.70;99.90;;;;;;5011613;28;20049;-81
2022/08/09 09:33:33;;;;;;;11.40;4.68;;;20.70;99.90;;;;;;5012900;28;20528;-81
2022/08/09 09:36:01;;;;;;;11.90;5.45;;;20.80;99.90;;;;;;4993562;28;20085;-81
2022/08/09 09:38:48;;;;;;;9.88;4.18;;;20.90;99.90;;;;;;5011751;28;20033;-80
2022/08/09 09:41:22;;;;;;;6.97;3.45;;;20.90;99.90;;;;;;5008564;28;20029;-81
2022/08/09 09:43:59;;;;;;;8.38;3.80;;;21.00;99.90;;;;;;5011343;28;20030;-81
2022/08/09 09:46:36;;;;;;;8.65;4.07;;;21.00;99.90;;;;;;5012393;28;20505;-81
2022/08/09 09:49:10;;;;;;;9.70;4.35;;;21.10;99.90;;;;;;5011397;28;20058;-81
2022/08/09 09:51:38;;;;;;;11.68;4.05;;;21.10;99.90;;;;;;5008602;28;20113;-81
2022/08/09 09:54:08;;;;;;;12.15;4.55;;;21.20;99.90;;;;;;5010795;28;20040;-81
2022/08/09 09:56:42;;;;;;;11.63;4.75;;;21.40;99.90;;;;;;5005675;28;20053;-81
2022/08/09 09:59:09;;;;;;;9.38;4.82;;;21.40;99.90;;;;;;5006555;28;20052;-81
2022/08/09 10:01:41;;;;;;;7.45;3.95;;;21.50;99.90;;;;;;5011206;28;20076;-81
2022/08/09 10:04:15;;;;;;;13.07;4.38;;;21.50;99.90;;;;;;5011863;28;20034;-81
2022/08/09 10:06:45;;;;;;;11.68;4.72;;;21.50;99.90;;;;;;5009746;28;20445;-81
2022/08/09 10:09:12;;;;;;;7.43;5.05;;;21.60;99.90;;;;;;5012257;28;20030;-81
2022/08/09 10:11:54;;;;;;;13.70;4.68;;;21.60;99.90;;;;;;5011412;28;20478;-81
2022/08/09 10:14:29;;;;;;;12.13;5.25;;;21.60;99.90;;;;;;5011396;28;20105;-81
2022/08/09 10:16:56;;;;;;;11.68;5.03;;;21.60;99.90;;;;;;5010977;28;20018;-81
2022/08/09 10:19:36;;;;;;;4.50;3.65;;;21.60;99.90;;;;;;5011785;28;20061;-81
2022/08/09 10:22:02;;;;;;;13.80;4.75;;;21.70;99.90;;;;;;5012155;28;20057;-81
2022/08/09 10:24:28;;;;;;;8.02;4.25;;;21.70;99.90;;;;;;5007401;28;20054;-81
2022/08/09 10:26:55;;;;;;;6.05;3.47;;;21.80;99.90;;;;;;5010152;28;20382;-81
2022/08/09 10:29:22;;;;;;;15.25;4.78;;;21.80;99.90;;;;;;5010976;28;20030;-81
2022/08/09 10:31:48;;;;;;;11.77;3.83;;;21.90;99.90;;;;;;5010711;28;20032;-82
2022/08/09 10:34:15;;;;;;;19.17;5.47;;;22.10;99.90;;;;;;5011855;28;20484;-82
2022/08/09 10:36:42;;;;;;;8.75;4.10;;;22.10;99.90;;;;;;5012359;28;20359;-81
2022/08/09 10:39:08;;;;;;;15.63;4.22;;;22.20;99.90;;;;;;5008643;28;20026;-81
2022/08/09 10:41:34;;;;;;;15.02;4.03;;;22.20;99.90;;;;;;5015887;28;20021;-82
2022/08/09 10:44:00;;;;;;;14.32;4.07;;;22.20;99.90;;;;;;5016031;28;20164;-82
2022/08/09 10:46:52;;;;;;;5.78;3.42;;;22.30;99.90;;;;;;5014265;28;20117;-82
2022/08/09 10:49:37;;;;;;;9.52;3.40;;;22.40;99.90;;;;;;5006620;28;20382;-82
2022/08/09 10:52:25;;;;;;;9.35;4.45;;;22.50;99.90;;;;;;5014625;28;20076;-83
2022/08/09 10:54:52;;;;;;;7.93;3.58;;;22.60;99.90;;;;;;5007584;28;20022;-82
2022/08/09 10:57:35;;;;;;;11.55;4.40;;;22.70;99.90;;;;;;5012398;28;20022;-82
2022/08/09 11:00:21;;;;;;;4.75;4.03;;;22.80;99.90;;;;;;5010489;28;20026;-83
2022/08/09 11:02:47;;;;;;;12.95;4.28;;;22.90;99.90;;;;;;5015113;28;20486;-82
2022/08/09 11:05:16;;;;;;;15.15;4.55;;;23.00;99.90;;;;;;5012026;28;20034;-82
2022/08/09 11:07:42;;;;;;;11.93;4.65;;;23.10;97.50;;;;;;5014924;28;20040;-82
2022/08/09 11:10:35;;;;;;;8.25;3.95;;;23.20;97.80;;;;;;5015155;28;20390;-82
2022/08/09 11:13:18;;;;;;;17.38;4.75;;;23.30;96.70;;;;;;5005610;28;20427;-82
2022/08/09 11:15:45;;;;;;;7.05;3.72;;;23.40;94.80;;;;;;5014088;28;20036;-82
2022/08/09 11:18:44;;;;;;;6.72;3.88;;;23.40;95.10;;;;;;5014215;28;20034;-82
2022/08/09 11:21:48;;;;;;;11.30;3.70;;;23.40;93.80;;;;;;5005194;28;20413;-82
2022/08/09 11:24:14;;;;;;;11.20;4.25;;;23.40;94.30;;;;;;5013102;28;20377;-83
2022/08/09 11:26:43;;;;;;;11.02;3.85;;;23.50;91.10;;;;;;5010401;28;20117;-82
2022/08/09 11:29:47;;;;;;;10.68;4.05;;;23.60;87.30;;;;;;5013926;28;20470;-82
2022/08/09 11:32:43;;;;;;;9.05;3.78;;;23.50;88.20;;;;;;5006389;28;20030;-81
2022/08/09 11:35:28;;;;;;;;;;;23.60;85.00;;;;;;4994680;28;20398;-81
2022/08/09 11:37:57;;;;;;;10.25;3.45;;;23.50;83.20;;;;;;5014508;28;19964;-82
2022/08/09 11:40:23;;;;;;;18.88;4.88;;;23.60;85.20;;;;;;5014943;28;20129;-81
2022/08/09 11:42:52;;;;;;;8.40;3.47;;;23.80;81.90;;;;;;5009508;28;20494;-82
2022/08/09 11:45:29;;;;;;;10.80;3.28;;;23.80;80.10;;;;;;5014588;28;20022;-82
2022/08/09 11:47:57;;;;;;;9.48;3.47;;;23.90;76.50;;;;;;5014468;28;20036;-82
2022/08/09 11:50:28;;;;;;;5.65;3.17;;;23.90;76.80;;;;;;5007431;28;20034;-82
2022/08/09 11:52:59;;;;;;;7.85;2.97;;;23.90;77.20;;;;;;5011988;28;20018;-82
2022/08/09 11:55:39;;;;;;;5.88;3.67;;;23.90;73.30;;;;;;5012999;28;20030;-83
2022/08/09 11:58:52;;;;;;;9.55;3.40;;;24.00;74.50;;;;;;5008102;28;20045;-83
2022/08/09 12:01:32;;;;;;;6.22;2.58;;;24.20;69.80;;;;;;5004363;28;20042;-83
2022/08/09 12:04:19;;;;;;;10.10;3.28;;;24.30;66.50;;;;;;5014248;28;20030;-82
2022/08/09 12:06:49;;;;;;;7.03;2.97;;;24.30;66.60;;;;;;5013713;28;20022;-83
2022/08/09 12:09:15;;;;;;;5.68;2.90;;;24.40;66.10;;;;;;5010383;28;20062;-82
2022/08/09 12:11:42;;;;;;;4.32;3.25;;;24.40;67.80;;;;;;5014450;28;20053;-82
2022/08/09 12:14:12;;;;;;;3.83;2.67;;;24.40;64.30;;;;;;5013911;28;20080;-82
2022/08/09 12:16:40;;;;;;;11.15;4.25;;;24.40;64.80;;;;;;5011301;28;20045;-82
2022/08/09 12:19:09;;;;;;;7.45;3.38;;;24.50;68.50;;;;;;5012809;28;20475;-82
2022/08/09 12:21:37;;;;;;;11.82;3.47;;;24.60;66.60;;;;;;5013438;28;20025;-82
2022/08/09 12:24:19;;;;;;;5.40;3.33;;;24.70;64.80;;;;;;5008121;28;20036;-82
2022/08/09 12:26:50;;;;;;;5.57;3.25;;;24.80;62.90;;;;;;5011870;28;20505;-82
2022/08/09 12:29:17;;;;;;;8.65;3.00;;;24.80;62.20;;;;;;5014119;28;20022;-82
2022/08/09 12:31:44;;;;;;;5.13;2.67;;;24.70;60.30;;;;;;5009050;28;20033;-82
2022/08/09 12:34:10;;;;;;;8.50;3.10;;;24.60;59.30;;;;;;5013644;28;20042;-82
2022/08/09 12:36:54;;;;;;;7.95;3.03;;;24.50;60.60;;;;;;5009007;28;20430;-82
2022/08/09 12:39:20;;;;;;;5.35;3.40;;;24.40;60.10;;;;;;5009928;28;20124;-82
2022/08/09 12:41:46;;;;;;;6.35;2.83;;;24.20;61.60;;;;;;5012971;28;20120;-82
2022/08/09 12:44:12;;;;;;;8.32;3.63;;;24.10;61.80;;;;;;5013781;28;20028;-82
2022/08/09 12:46:43;;;;;;;6.45;2.75;;;24.20;61.20;;;;;;5013322;28;20040;-81
2022/08/09 12:49:10;;;;;;;2.97;2.53;;;24.20;60.70;;;;;;5013133;28;20033;-81
2022/08/09 12:51:38;;;;;;;4.65;2.92;;;24.10;60.80;;;;;;5012902;28;20033;-82
2022/08/09 12:54:06;;;;;;;4.78;3.40;;;24.00;61.00;;;;;;5010386;28;20421;-82
2022/08/09 12:56:46;;;;;;;5.78;3.33;;;23.90;61.40;;;;;;5012930;28;20029;-82
2022/08/09 12:59:14;;;;;;;4.55;3.20;;;24.00;60.50;;;;;;5012524;28;20018;-82